Terminal Aerodrome Forecast
Issued by NWS

Current Version | Previous Version | Text Only | Print | Product List | Glossary Off
Versions: 1 2 3 4 5 6 7 8 9 10 11 12 13 14

000
FTUS44 KCRP 030500
TAFLRD
TAF
KLRD 030520Z 0306/0406 12015KT P6SM SCT035
     FM031000 12009KT P6SM BKN018
     FM031600 13012KT P6SM VCSH BKN050 OVC100
      TEMPO 0320/0324 VRB20G35KT 3SM TSRA OVC035CB
     FM040300 14009KT P6SM SCT050 BKN250=

USA.gov is the U.S. government's official web portal to all federal, state and local government web resources and services.